SGEN/ENO METAR and TAF weather

Enter ICAO airport designator
Station Type Date Time Source
SGEN METAR 2019/08/24 21:00 UTC NOAA

SGEN 242100Z 12003KT CAVOK 24/11 Q1018


Station Type Date Time Source
SGEN Decoded METAR 2019/08/24 21:00 UTC NOAA

Station name not available
Aug 24, 2019 - 05:00 PM EDT / 2019.08.24 2100 UTC
Wind: from the ESE (120 degrees) at 3 MPH (3 KT):0
Visibility: greater than 7 mile(s):0
Temperature: 75 F (24 C)
Dew Point: 51 F (11 C)
Relative Humidity: 43%
Pressure (altimeter): 30.06 in. Hg (1018 hPa)
ob: SGEN 242100Z 12003KT CAVOK 24/11 Q1018
cycle: 21

Station Type Date Time Source
SGEN TAF 2019/08/24 18:00 UTC NOAA

TAF SGEN 241700Z 2418/2518 09003KT CAVOK TX26/2418Z TN14/2509Z
BECMG 2420/2423 05008KT CAVOK
BECMG 2504/2507 09006KT 9999 BKN027 PROB30 2514/2517 8000 TSRA BKN020

Example: see airport list